Time;durP1;ratioP1;P1;durP2;ratioP2;P2;SDS_P1;SDS_P2;PMS_P1;PMS_P2;Temp;Humidity;BMP_temperature;BMP_pressure;BME280_temperature;BME280_humidity;BME280_pressure;Samples;Min_cycle;Max_cycle;Signal;HPM_P1;HPM_P2
2022/11/29 00:00:57;;;;;;;0.50;0.40;;;9.20;99.90;;;;;;5074799;28;20218;-81
2022/11/29 00:03:24;;;;;;;0.50;0.40;;;9.20;99.90;;;;;;5074852;28;20297;-79
2022/11/29 00:05:52;;;;;;;0.50;0.40;;;9.20;99.90;;;;;;5076995;28;20189;-80
2022/11/29 00:08:19;;;;;;;0.50;0.40;;;9.30;99.90;;;;;;5079038;28;20204;-80
2022/11/29 00:10:45;;;;;;;0.50;0.40;;;9.20;99.90;;;;;;5071072;28;20274;-77
2022/11/29 00:13:14;;;;;;;1.15;1.15;;;9.20;99.90;;;;;;5078481;28;20592;-81
2022/11/29 00:15:41;;;;;;;0.88;0.88;;;9.30;99.90;;;;;;5078110;28;20220;-81
2022/11/29 00:18:08;;;;;;;0.50;0.50;;;9.30;99.90;;;;;;5078288;28;20284;-80
2022/11/29 00:20:35;;;;;;;0.50;0.40;;;9.30;99.90;;;;;;5078457;28;20214;-79
2022/11/29 00:23:02;;;;;;;0.50;0.40;;;9.20;99.90;;;;;;5078289;28;20750;-79
2022/11/29 00:25:29;;;;;;;0.50;0.40;;;9.20;99.90;;;;;;5076969;28;20420;-79
2022/11/29 00:27:56;;;;;;;0.50;0.40;;;9.20;99.90;;;;;;5077725;28;20194;-77
2022/11/29 00:30:24;;;;;;;0.50;0.40;;;9.20;99.90;;;;;;5078288;28;20222;-79
2022/11/29 00:32:51;;;;;;;1.60;1.50;;;9.20;99.90;;;;;;5077135;28;20202;-79
2022/11/29 00:35:18;;;;;;;0.50;0.40;;;9.20;99.90;;;;;;5076903;28;20216;-80
2022/11/29 00:37:45;;;;;;;0.50;0.40;;;9.20;99.90;;;;;;5078032;28;20194;-80
2022/11/29 00:40:12;;;;;;;0.55;0.40;;;9.30;99.90;;;;;;5072018;28;20763;-78
2022/11/29 00:42:39;;;;;;;0.50;0.40;;;9.20;99.90;;;;;;5076360;28;20196;-79
2022/11/29 00:45:07;;;;;;;0.50;0.40;;;9.20;99.90;;;;;;5077752;28;20281;-81
2022/11/29 00:47:35;;;;;;;0.50;0.40;;;9.30;99.90;;;;;;5078703;28;20221;-80
2022/11/29 00:50:02;;;;;;;0.63;0.63;;;9.30;99.90;;;;;;5077709;28;20727;-80
2022/11/29 00:52:28;;;;;;;1.90;1.80;;;9.30;99.90;;;;;;5076664;28;20280;-78
2022/11/29 00:54:55;;;;;;;0.50;0.40;;;9.30;99.90;;;;;;5077773;28;20189;-82
2022/11/29 00:57:22;;;;;;;0.50;0.40;;;9.30;99.90;;;;;;5077569;28;20197;-80
2022/11/29 00:59:49;;;;;;;0.50;0.40;;;9.30;99.90;;;;;;5078177;28;20243;-79
2022/11/29 01:02:16;;;;;;;0.50;0.40;;;9.30;99.90;;;;;;5079159;28;20686;-81
2022/11/29 01:04:44;;;;;;;0.50;0.50;;;9.20;99.90;;;;;;5077049;28;20198;-80
2022/11/29 01:07:11;;;;;;;0.50;0.40;;;9.30;99.90;;;;;;5077589;28;20190;-79
2022/11/29 01:09:38;;;;;;;1.20;1.20;;;9.20;99.90;;;;;;5076169;28;20267;-79
2022/11/29 01:12:05;;;;;;;0.50;0.40;;;9.20;99.90;;;;;;5071133;28;20194;-80
2022/11/29 01:14:32;;;;;;;0.50;0.40;;;9.30;99.90;;;;;;5077328;28;20194;-79
2022/11/29 01:16:58;;;;;;;1.15;1.05;;;9.30;99.90;;;;;;5077420;28;20217;-79
2022/11/29 01:19:25;;;;;;;0.50;0.40;;;9.30;99.90;;;;;;5077780;28;20240;-81
2022/11/29 01:21:53;;;;;;;0.50;0.50;;;9.30;99.90;;;;;;5077421;28;20285;-79
2022/11/29 01:24:21;;;;;;;0.50;0.40;;;9.30;99.90;;;;;;5076483;28;20614;-80
2022/11/29 01:26:48;;;;;;;0.50;0.50;;;9.30;99.90;;;;;;5077027;28;20194;-81
2022/11/29 01:29:15;;;;;;;4.68;3.95;;;9.30;99.90;;;;;;5077584;28;20213;-79
2022/11/29 01:31:42;;;;;;;0.50;0.40;;;9.30;99.90;;;;;;5076794;28;20284;-81
2022/11/29 01:34:09;;;;;;;0.50;0.40;;;9.20;99.90;;;;;;5074950;28;20288;-81
2022/11/29 01:36:36;;;;;;;0.55;0.52;;;9.20;99.90;;;;;;5076994;28;20218;-81
2022/11/29 01:39:06;;;;;;;2.90;2.45;;;9.20;99.90;;;;;;5077359;28;20296;-79
2022/11/29 01:41:34;;;;;;;0.50;0.40;;;9.30;99.90;;;;;;5069072;28;20253;-81
2022/11/29 01:44:03;;;;;;;2.17;2.08;;;9.30;99.90;;;;;;5075648;28;20616;-79
2022/11/29 01:46:32;;;;;;;0.60;0.60;;;9.20;99.90;;;;;;5077306;28;20194;-79
2022/11/29 01:49:03;;;;;;;0.50;0.40;;;9.30;99.90;;;;;;5076973;28;20202;-80
2022/11/29 01:51:32;;;;;;;0.50;0.40;;;9.30;99.90;;;;;;5077134;28;20182;-79
2022/11/29 01:53:59;;;;;;;4.88;1.85;;;9.30;99.90;;;;;;5075989;28;20216;-80
2022/11/29 01:56:29;;;;;;;0.50;0.40;;;9.30;99.90;;;;;;5076665;28;20296;-80
2022/11/29 01:58:56;;;;;;;0.50;0.40;;;9.20;99.90;;;;;;5076050;28;20736;-80
2022/11/29 02:01:23;;;;;;;0.50;0.40;;;9.20;99.90;;;;;;5076722;28;20194;-80
2022/11/29 02:03:50;;;;;;;0.50;0.40;;;9.20;99.90;;;;;;5076624;28;20198;-79
2022/11/29 02:06:17;;;;;;;0.70;0.70;;;9.20;99.90;;;;;;5075784;28;20221;-79
2022/11/29 02:08:44;;;;;;;0.50;0.50;;;9.20;99.90;;;;;;5073640;28;20576;-77
2022/11/29 02:11:53;;;;;;;0.50;0.40;;;9.20;99.90;;;;;;5062108;28;20289;-79
2022/11/29 02:14:37;;;;;;;0.50;0.40;;;9.30;99.90;;;;;;5048069;28;20281;-79
2022/11/29 02:17:16;;;;;;;0.50;0.40;;;9.30;99.90;;;;;;5057082;28;20229;-78
2022/11/29 02:20:10;;;;;;;0.50;0.40;;;9.30;99.90;;;;;;5056200;28;20261;-80
2022/11/29 02:22:43;;;;;;;0.50;0.40;;;9.20;99.90;;;;;;5056394;28;20221;-80
2022/11/29 02:25:27;;;;;;;5.50;3.97;;;9.20;99.90;;;;;;5055746;28;20195;-79
2022/11/29 02:28:27;;;;;;;0.50;0.40;;;9.20;99.90;;;;;;5054560;28;20190;-78
2022/11/29 02:31:07;;;;;;;1.58;1.58;;;9.20;99.90;;;;;;5056600;28;20220;-81
2022/11/29 02:34:03;;;;;;;1.15;1.05;;;9.20;99.90;;;;;;5054754;28;20289;-80
2022/11/29 02:36:58;;;;;;;8.02;2.70;;;9.20;99.90;;;;;;5053783;28;20242;-81
2022/11/29 02:39:38;;;;;;;0.60;0.50;;;9.20;99.90;;;;;;5061620;28;20766;-78
2022/11/29 02:42:27;;;;;;;0.70;0.70;;;9.30;99.90;;;;;;5069608;28;20268;-80
2022/11/29 02:45:05;;;;;;;0.50;0.40;;;9.20;99.90;;;;;;5074501;28;20212;-77
2022/11/29 02:47:43;;;;;;;0.50;0.40;;;9.20;99.90;;;;;;5075983;28;20181;-79
2022/11/29 02:50:19;;;;;;;0.60;0.60;;;9.20;99.90;;;;;;5075780;28;20717;-79
2022/11/29 02:52:54;;;;;;;0.50;0.40;;;9.20;99.90;;;;;;5075876;28;20615;-80
2022/11/29 02:55:33;;;;;;;0.70;0.70;;;9.20;99.90;;;;;;5075025;28;20748;-81
2022/11/29 02:58:09;;;;;;;0.50;0.40;;;9.20;99.90;;;;;;5075271;28;20525;-79
2022/11/29 03:00:41;;;;;;;0.50;0.40;;;9.30;99.90;;;;;;5074888;28;20304;-80
2022/11/29 03:03:14;;;;;;;0.50;0.40;;;9.30;99.90;;;;;;5076161;28;20210;-79
2022/11/29 03:05:49;;;;;;;0.50;0.40;;;9.30;99.90;;;;;;5074481;28;20306;-78
2022/11/29 03:08:25;;;;;;;0.50;0.40;;;9.30;99.90;;;;;;5075160;28;20178;-78
2022/11/29 03:11:00;;;;;;;4.53;1.57;;;9.30;99.90;;;;;;5066491;28;20209;-77
2022/11/29 03:13:51;;;;;;;0.50;0.40;;;9.30;99.90;;;;;;5075262;28;20503;-79
2022/11/29 03:16:28;;;;;;;3.38;3.17;;;9.30;99.90;;;;;;5075163;28;20479;-77
2022/11/29 03:19:04;;;;;;;1.92;1.90;;;9.30;99.90;;;;;;5075467;28;20957;-78
2022/11/29 03:21:41;;;;;;;0.93;0.93;;;9.30;99.90;;;;;;5075631;28;20174;-78
2022/11/29 03:24:15;;;;;;;0.50;0.40;;;9.20;99.90;;;;;;5074366;28;20178;-77
2022/11/29 03:26:45;;;;;;;0.50;0.40;;;9.20;99.90;;;;;;5075303;28;20184;-78
2022/11/29 03:29:25;;;;;;;0.50;0.40;;;9.10;99.90;;;;;;5075297;28;20214;-78
2022/11/29 03:32:00;;;;;;;0.50;0.40;;;9.10;99.90;;;;;;5075770;28;20264;-79
2022/11/29 03:34:40;;;;;;;0.50;0.40;;;9.10;99.90;;;;;;5073326;28;20650;-78
2022/11/29 03:37:14;;;;;;;0.50;0.40;;;9.10;99.90;;;;;;5075885;28;20224;-78
2022/11/29 03:39:50;;;;;;;0.50;0.40;;;9.10;99.90;;;;;;5069656;28;20285;-77
2022/11/29 03:42:23;;;;;;;0.50;0.40;;;9.10;99.90;;;;;;5070820;28;20217;-79
2022/11/29 03:44:57;;;;;;;2.65;2.50;;;9.10;99.90;;;;;;5073920;28;20245;-77
2022/11/29 03:47:29;;;;;;;0.82;0.77;;;9.10;99.90;;;;;;5075085;28;20257;-78
2022/11/29 03:50:01;;;;;;;0.50;0.40;;;9.10;99.90;;;;;;5075305;28;20308;-76
2022/11/29 03:52:33;;;;;;;0.50;0.30;;;9.10;99.90;;;;;;5075454;28;20194;-77
2022/11/29 03:55:14;;;;;;;0.50;0.40;;;9.10;99.90;;;;;;5074127;28;20273;-80
2022/11/29 03:57:50;;;;;;;0.50;0.50;;;9.10;99.90;;;;;;5075430;28;20579;-81
2022/11/29 04:00:18;;;;;;;0.50;0.40;;;9.10;99.90;;;;;;5075177;28;20266;-79
2022/11/29 04:03:17;;;;;;;0.50;0.40;;;9.10;99.90;;;;;;5074729;28;20566;-77
2022/11/29 04:06:17;;;;;;;0.50;0.40;;;9.00;99.90;;;;;;5073442;28;20204;-77
2022/11/29 04:09:16;;;;;;;0.50;0.40;;;8.90;99.90;;;;;;5059233;28;20236;-79
2022/11/29 04:12:13;;;;;;;2.08;1.98;;;8.90;99.90;;;;;;5064300;28;20214;-77
2022/11/29 04:15:37;;;;;;;0.50;0.40;;;8.90;99.90;;;;;;5053920;28;20233;-78
2022/11/29 04:18:28;;;;;;;0.50;0.40;;;8.90;99.90;;;;;;5054771;28;20220;-78
2022/11/29 04:21:22;;;;;;;0.60;0.55;;;8.90;99.90;;;;;;5055359;28;20214;-77
2022/11/29 04:24:23;;;;;;;0.50;0.40;;;8.90;99.90;;;;;;5055117;28;20187;-81
2022/11/29 04:27:09;;;;;;;1.77;1.67;;;8.80;99.90;;;;;;5003152;28;20260;-78
2022/11/29 04:30:15;;;;;;;0.50;0.40;;;8.70;99.90;;;;;;5054428;28;20214;-78
2022/11/29 04:33:17;;;;;;;0.50;0.40;;;8.70;99.90;;;;;;5054280;28;20183;-79
2022/11/29 04:36:19;;;;;;;0.50;0.40;;;8.70;99.90;;;;;;5050904;28;20212;-77
2022/11/29 04:39:19;;;;;;;0.50;0.40;;;8.70;99.90;;;;;;5057266;28;20198;-77
2022/11/29 04:42:16;;;;;;;0.50;0.40;;;8.60;99.90;;;;;;5062100;28;20191;-78
2022/11/29 04:45:04;;;;;;;0.50;0.40;;;8.60;99.90;;;;;;5074755;28;20190;-78
2022/11/29 04:47:50;;;;;;;0.50;0.40;;;8.70;99.90;;;;;;5076220;28;20452;-78
2022/11/29 04:50:26;;;;;;;0.50;0.40;;;8.60;99.90;;;;;;5076300;28;20220;-78
2022/11/29 04:53:19;;;;;;;0.50;0.40;;;8.50;99.90;;;;;;5079162;28;20642;-79
2022/11/29 04:55:54;;;;;;;0.50;0.40;;;8.50;99.90;;;;;;5078673;28;20269;-80
2022/11/29 04:58:31;;;;;;;0.50;0.40;;;8.40;99.90;;;;;;5078558;28;20228;-78
2022/11/29 05:01:03;;;;;;;0.50;0.40;;;8.30;99.90;;;;;;5079495;28;20300;-79
2022/11/29 05:03:39;;;;;;;0.50;0.40;;;8.20;99.90;;;;;;5078738;28;20229;-78
2022/11/29 05:06:18;;;;;;;0.50;0.40;;;8.20;99.90;;;;;;5076999;28;20178;-79
2022/11/29 05:08:51;;;;;;;0.50;0.40;;;8.10;99.90;;;;;;5078297;28;20844;-78
2022/11/29 05:11:26;;;;;;;0.50;0.40;;;8.00;99.90;;;;;;5069352;28;20196;-79
2022/11/29 05:14:01;;;;;;;0.50;0.40;;;7.90;99.90;;;;;;5077376;28;20205;-77
2022/11/29 05:16:42;;;;;;;0.50;0.40;;;7.80;99.90;;;;;;5077031;28;20817;-80
2022/11/29 05:19:25;;;;;;;0.50;0.40;;;7.70;99.90;;;;;;5077553;28;20225;-79
2022/11/29 05:22:01;;;;;;;0.70;0.70;;;7.60;99.90;;;;;;5077713;28;20205;-78
2022/11/29 05:24:43;;;;;;;0.50;0.50;;;7.50;99.90;;;;;;5077109;28;20204;-78
2022/11/29 05:27:18;;;;;;;0.50;0.40;;;7.40;99.90;;;;;;5077719;28;20622;-77
2022/11/29 05:29:55;;;;;;;0.50;0.40;;;7.40;99.90;;;;;;5077031;28;20239;-78
2022/11/29 05:32:31;;;;;;;0.50;0.40;;;7.30;99.90;;;;;;5076660;28;20185;-81
2022/11/29 05:35:47;;;;;;;0.50;0.40;;;7.20;99.90;;;;;;5075771;28;20635;-79
2022/11/29 05:38:32;;;;;;;0.50;0.40;;;7.10;99.90;;;;;;5072917;28;20240;-78
2022/11/29 05:41:15;;;;;;;0.50;0.40;;;7.00;99.90;;;;;;5062854;28;20209;-80
2022/11/29 05:43:53;;;;;;;0.50;0.40;;;7.00;99.90;;;;;;5060234;28;20205;-79
2022/11/29 05:46:29;;;;;;;0.50;0.40;;;6.90;99.90;;;;;;5056670;28;20190;-79
2022/11/29 05:49:03;;;;;;;0.50;0.40;;;6.90;99.90;;;;;;5055932;28;20675;-77
2022/11/29 05:51:40;;;;;;;0.50;0.40;;;6.90;99.90;;;;;;5073728;28;20257;-77
2022/11/29 05:54:16;;;;;;;0.50;0.40;;;6.90;99.90;;;;;;5075864;28;20190;-80
2022/11/29 05:56:51;;;;;;;2.72;1.05;;;6.90;99.90;;;;;;5076063;28;20202;-81
2022/11/29 05:59:21;;;;;;;0.55;0.55;;;6.90;99.90;;;;;;5076519;28;20214;-79
2022/11/29 06:01:55;;;;;;;0.50;0.40;;;7.00;99.90;;;;;;5076719;28;20188;-81
2022/11/29 06:04:29;;;;;;;0.50;0.40;;;7.00;99.90;;;;;;5076568;28;20178;-79
2022/11/29 06:07:03;;;;;;;0.50;0.40;;;7.10;99.90;;;;;;5075425;28;20192;-81
2022/11/29 06:09:38;;;;;;;0.50;0.40;;;7.10;99.90;;;;;;5075142;28;20300;-81
2022/11/29 06:12:12;;;;;;;0.50;0.40;;;7.20;99.90;;;;;;5069889;28;20183;-80
2022/11/29 06:14:55;;;;;;;0.50;0.40;;;7.30;99.90;;;;;;5075430;28;20266;-78
2022/11/29 06:17:38;;;;;;;0.50;0.40;;;7.30;99.90;;;;;;5075886;28;20232;-81
2022/11/29 06:20:43;;;;;;;1.67;1.58;;;7.40;99.90;;;;;;5075420;28;20226;-78
2022/11/29 06:23:31;;;;;;;0.50;0.50;;;7.50;99.90;;;;;;5079709;28;20250;-80
2022/11/29 06:26:15;;;;;;;0.50;0.40;;;7.60;99.90;;;;;;5087845;28;20225;-78
2022/11/29 06:28:57;;;;;;;0.50;0.40;;;7.60;99.90;;;;;;5081308;28;20186;-81
2022/11/29 06:31:28;;;;;;;0.50;0.40;;;7.70;99.90;;;;;;5058243;28;20174;-79
2022/11/29 06:34:05;;;;;;;0.57;0.40;;;7.70;99.90;;;;;;5054101;28;20201;-79
2022/11/29 06:36:37;;;;;;;0.50;0.40;;;7.70;99.90;;;;;;5055938;28;20186;-78
2022/11/29 06:39:04;;;;;;;3.45;1.50;;;7.70;99.90;;;;;;5056050;28;20209;-80
2022/11/29 06:41:32;;;;;;;4.28;2.05;;;7.80;99.90;;;;;;5073665;28;20289;-79
2022/11/29 06:43:59;;;;;;;1.88;1.88;;;7.80;99.90;;;;;;5075818;28;20262;-79
2022/11/29 06:46:36;;;;;;;0.50;0.40;;;7.80;99.90;;;;;;5070154;28;20233;-81
2022/11/29 06:49:09;;;;;;;0.50;0.40;;;7.80;99.90;;;;;;5066687;28;20197;-79
2022/11/29 06:51:47;;;;;;;0.50;0.40;;;7.80;99.90;;;;;;5066303;28;20193;-80
2022/11/29 06:54:26;;;;;;;9.98;3.53;;;7.80;99.90;;;;;;5054619;28;20182;-81
2022/11/29 06:57:06;;;;;;;0.50;0.40;;;7.70;99.90;;;;;;5054879;28;20209;-81
2022/11/29 06:59:47;;;;;;;0.50;0.40;;;7.70;99.90;;;;;;5055821;28;20729;-78
2022/11/29 07:02:31;;;;;;;1.02;1.02;;;7.80;99.90;;;;;;5055134;28;20198;-79
2022/11/29 07:05:13;;;;;;;0.50;0.50;;;7.80;99.90;;;;;;5054273;28;20194;-79
2022/11/29 07:07:41;;;;;;;0.50;0.50;;;7.80;99.90;;;;;;5056864;28;20688;-80
2022/11/29 07:10:15;;;;;;;0.60;0.60;;;7.80;99.90;;;;;;5062683;28;20556;-79
2022/11/29 07:12:43;;;;;;;0.50;0.40;;;7.80;99.90;;;;;;5075384;28;20251;-80
2022/11/29 07:15:13;;;;;;;0.50;0.40;;;7.70;99.90;;;;;;5074141;28;20204;-79
2022/11/29 07:17:51;;;;;;;0.50;0.40;;;7.70;99.90;;;;;;5074974;28;20237;-80
2022/11/29 07:20:30;;;;;;;0.50;0.40;;;7.70;99.90;;;;;;5075011;28;20226;-80
2022/11/29 07:23:05;;;;;;;0.50;0.40;;;7.70;99.90;;;;;;5075140;28;20193;-79
2022/11/29 07:25:41;;;;;;;2.08;1.20;;;7.70;99.90;;;;;;5074122;28;20190;-79
2022/11/29 07:28:18;;;;;;;0.50;0.40;;;7.70;99.90;;;;;;5074223;28;20603;-80
2022/11/29 07:30:52;;;;;;;0.50;0.40;;;7.70;99.90;;;;;;5074106;28;20308;-80
2022/11/29 07:33:27;;;;;;;0.50;0.40;;;7.70;99.90;;;;;;5073855;28;20193;-80
2022/11/29 07:36:05;;;;;;;0.90;0.90;;;7.70;99.90;;;;;;5074219;28;20280;-80
2022/11/29 07:38:57;;;;;;;0.50;0.40;;;7.60;99.90;;;;;;5074593;28;20210;-80
2022/11/29 07:41:29;;;;;;;0.50;0.40;;;7.70;99.90;;;;;;5066932;28;20210;-80
2022/11/29 07:44:05;;;;;;;0.50;0.40;;;7.70;99.90;;;;;;5054255;28;20178;-77
2022/11/29 07:46:32;;;;;;;0.50;0.40;;;7.70;99.90;;;;;;5054940;28;20321;-79
2022/11/29 07:48:59;;;;;;;0.50;0.40;;;7.80;99.90;;;;;;5054602;28;20277;-81
2022/11/29 07:51:27;;;;;;;0.50;0.40;;;7.80;99.90;;;;;;5054308;28;20197;-81
2022/11/29 07:53:54;;;;;;;0.50;0.40;;;7.80;99.90;;;;;;5054243;28;20191;-76
2022/11/29 07:56:21;;;;;;;0.50;0.40;;;7.80;99.90;;;;;;5055331;28;20668;-80
2022/11/29 07:58:48;;;;;;;0.50;0.40;;;7.90;99.90;;;;;;5054459;28;20225;-77
2022/11/29 08:01:15;;;;;;;0.50;0.40;;;7.90;99.90;;;;;;5054857;28;20345;-80
2022/11/29 08:03:42;;;;;;;0.50;0.40;;;8.00;99.90;;;;;;5053997;28;20240;-80
2022/11/29 08:06:09;;;;;;;0.50;0.40;;;8.00;99.90;;;;;;5053515;28;20221;-78
2022/11/29 08:08:37;;;;;;;0.50;0.40;;;7.90;99.90;;;;;;5054864;28;20258;-80
2022/11/29 08:11:09;;;;;;;0.50;0.30;;;7.90;99.90;;;;;;5067834;28;20220;-80
2022/11/29 08:13:36;;;;;;;0.50;0.40;;;7.90;99.90;;;;;;5075466;28;20568;-79
2022/11/29 08:16:03;;;;;;;0.50;0.40;;;8.00;99.90;;;;;;5073339;28;20718;-80
2022/11/29 08:18:29;;;;;;;0.50;0.40;;;8.00;99.90;;;;;;5074827;28;20217;-79
2022/11/29 08:20:56;;;;;;;0.60;0.60;;;8.00;99.90;;;;;;5073801;28;20217;-80
2022/11/29 08:23:23;;;;;;;5.03;2.47;;;8.00;99.90;;;;;;5075128;28;20678;-79
2022/11/29 08:25:58;;;;;;;0.50;0.40;;;8.10;99.90;;;;;;5075184;28;20194;-79
2022/11/29 08:28:24;;;;;;;1.15;1.08;;;8.10;99.90;;;;;;5078096;28;20257;-79
2022/11/29 08:30:59;;;;;;;0.50;0.40;;;8.10;99.90;;;;;;5077600;28;20572;-75
2022/11/29 08:33:26;;;;;;;2.97;2.72;;;8.10;99.90;;;;;;5076006;28;20181;-79
2022/11/29 08:35:53;;;;;;;0.50;0.40;;;8.10;99.90;;;;;;5075198;28;20202;-78
2022/11/29 08:38:19;;;;;;;0.50;0.40;;;8.10;99.90;;;;;;5075584;28;20583;-80
2022/11/29 08:40:46;;;;;;;0.50;0.40;;;8.20;99.90;;;;;;5066941;28;20225;-80
2022/11/29 08:43:14;;;;;;;0.50;0.40;;;8.20;99.90;;;;;;5058233;28;20315;-79
2022/11/29 08:45:41;;;;;;;0.50;0.40;;;8.10;99.90;;;;;;5057557;28;20202;-80
2022/11/29 08:48:08;;;;;;;0.50;0.40;;;8.10;99.90;;;;;;5057944;28;20201;-80
2022/11/29 08:50:34;;;;;;;0.50;0.40;;;8.30;99.90;;;;;;5057273;28;20222;-81
2022/11/29 08:55:45;;;;;;;0.50;0.40;;;8.40;99.90;;;;;;5057318;28;20240;-80
2022/11/29 08:58:15;;;;;;;0.50;0.40;;;8.50;99.90;;;;;;5057942;28;20302;-80
2022/11/29 09:00:45;;;;;;;0.50;0.40;;;8.60;99.90;;;;;;5059160;28;20220;-79
2022/11/29 09:05:58;;;;;;;0.50;0.40;;;8.60;99.90;;;;;;5057136;28;20173;-79
2022/11/29 09:08:24;;;;;;;0.50;0.40;;;8.70;99.90;;;;;;5057763;28;20191;-79
2022/11/29 09:10:52;;;;;;;0.50;0.40;;;8.70;99.90;;;;;;5073758;28;20215;-76
2022/11/29 09:13:20;;;;;;;0.50;0.40;;;8.70;99.90;;;;;;5058681;28;20210;-78
2022/11/29 09:15:47;;;;;;;0.50;0.40;;;8.80;99.90;;;;;;5056072;28;20203;-80
2022/11/29 09:18:14;;;;;;;0.50;0.40;;;8.80;99.90;;;;;;5057423;28;20218;-81
2022/11/29 09:20:42;;;;;;;0.50;0.40;;;8.90;99.90;;;;;;5060843;28;20223;-78
2022/11/29 09:23:10;;;;;;;1.27;1.27;;;8.90;99.90;;;;;;5057890;28;20202;-78
2022/11/29 09:25:37;;;;;;;0.50;0.40;;;8.90;99.90;;;;;;5057248;28;20282;-79
2022/11/29 09:28:04;;;;;;;0.50;0.40;;;8.90;99.90;;;;;;5058839;28;20197;-78
2022/11/29 09:30:35;;;;;;;0.50;0.40;;;8.90;99.90;;;;;;5057856;28;20218;-78
2022/11/29 09:33:03;;;;;;;0.50;0.40;;;8.90;99.90;;;;;;5057843;28;20189;-78
2022/11/29 09:35:30;;;;;;;0.60;0.50;;;8.90;99.90;;;;;;5057767;28;20195;-78
2022/11/29 09:37:57;;;;;;;0.65;0.65;;;8.90;99.90;;;;;;5059089;28;20711;-80
2022/11/29 09:40:31;;;;;;;0.50;0.40;;;8.90;99.90;;;;;;5066731;28;20216;-79
2022/11/29 09:43:02;;;;;;;0.50;0.40;;;8.90;99.90;;;;;;5058755;28;20198;-79
2022/11/29 09:45:36;;;;;;;0.50;0.45;;;8.90;99.90;;;;;;5059063;28;20605;-79
2022/11/29 09:48:27;;;;;;;2.08;1.98;;;8.80;99.90;;;;;;5058997;28;20279;-77
2022/11/29 09:51:02;;;;;;;0.50;0.40;;;8.80;99.90;;;;;;5056461;28;20218;-79
2022/11/29 09:53:43;;;;;;;0.50;0.40;;;8.80;99.90;;;;;;5059145;28;20202;-79
2022/11/29 09:56:17;;;;;;;2.45;1.88;;;8.90;99.90;;;;;;5057701;28;20179;-81
2022/11/29 09:58:49;;;;;;;0.50;0.40;;;8.90;99.90;;;;;;5058431;28;20293;-81
2022/11/29 10:01:23;;;;;;;0.50;0.40;;;9.00;99.90;;;;;;5057535;28;20183;-80
2022/11/29 10:03:54;;;;;;;0.82;0.80;;;9.00;99.90;;;;;;5058474;28;20190;-81
2022/11/29 10:06:25;;;;;;;0.50;0.40;;;8.80;99.90;;;;;;5059267;28;20691;-80
2022/11/29 10:08:59;;;;;;;0.50;0.40;;;8.80;99.90;;;;;;5062880;28;20232;-78
2022/11/29 10:11:30;;;;;;;0.50;0.50;;;8.90;99.90;;;;;;5068970;28;20211;-80
2022/11/29 10:14:02;;;;;;;0.50;0.40;;;8.90;99.90;;;;;;5056349;28;20182;-76
2022/11/29 10:16:40;;;;;;;0.50;0.40;;;9.00;99.90;;;;;;5055948;28;20195;-77
2022/11/29 10:19:15;;;;;;;0.60;0.60;;;9.00;99.90;;;;;;5059093;28;20266;-79
2022/11/29 10:21:48;;;;;;;2.90;2.65;;;9.10;99.90;;;;;;5056469;28;20189;-79
2022/11/29 10:24:21;;;;;;;0.50;0.50;;;9.10;99.90;;;;;;5055501;28;20668;-79
2022/11/29 10:26:47;;;;;;;0.50;0.40;;;9.00;99.90;;;;;;5055135;28;20229;-80
2022/11/29 10:29:15;;;;;;;2.45;1.92;;;8.90;99.90;;;;;;5054569;28;20217;-79
2022/11/29 10:31:48;;;;;;;1.27;1.23;;;8.90;99.90;;;;;;5056121;28;20206;-81
2022/11/29 10:34:16;;;;;;;0.60;0.55;;;8.90;99.90;;;;;;5053520;28;20183;-81
2022/11/29 10:36:46;;;;;;;3.45;3.22;;;8.90;99.90;;;;;;5056472;28;20225;-81
2022/11/29 10:39:18;;;;;;;0.50;0.40;;;9.00;99.90;;;;;;5063645;28;20224;-80
2022/11/29 10:41:45;;;;;;;0.50;0.40;;;9.00;99.90;;;;;;5064629;28;20187;-81
2022/11/29 10:44:14;;;;;;;0.50;0.40;;;9.10;99.90;;;;;;5054796;28;20286;-80
2022/11/29 10:46:41;;;;;;;1.98;1.77;;;9.10;99.90;;;;;;5056050;28;20191;-80
2022/11/29 10:49:15;;;;;;;0.50;0.40;;;9.20;99.90;;;;;;5055768;28;20199;-80
2022/11/29 10:51:41;;;;;;;0.50;0.40;;;9.20;99.90;;;;;;5055949;28;20285;-78
2022/11/29 10:54:23;;;;;;;0.50;0.40;;;9.20;99.90;;;;;;5055233;28;20200;-79
2022/11/29 10:56:50;;;;;;;20.33;4.72;;;9.20;99.90;;;;;;5056723;28;20269;-81
2022/11/29 10:59:22;;;;;;;2.10;2.00;;;9.20;99.90;;;;;;5056440;28;20222;-80
2022/11/29 11:01:50;;;;;;;0.50;0.40;;;9.30;99.90;;;;;;5055342;28;20223;-79
2022/11/29 11:04:27;;;;;;;2.25;1.88;;;9.30;99.90;;;;;;5053626;28;20222;-79
2022/11/29 11:06:56;;;;;;;2.38;2.25;;;9.30;99.90;;;;;;5055251;28;20178;-79
2022/11/29 11:09:27;;;;;;;7.22;3.42;;;9.30;99.90;;;;;;5054798;28;20318;-78
2022/11/29 11:11:57;;;;;;;1.60;1.50;;;9.20;99.90;;;;;;5054372;28;20293;-75
2022/11/29 11:14:28;;;;;;;0.50;0.40;;;9.10;99.90;;;;;;5054311;28;20270;-78
2022/11/29 11:16:55;;;;;;;18.77;4.68;;;9.10;99.90;;;;;;5055227;28;20179;-79
2022/11/29 11:19:28;;;;;;;3.70;3.40;;;9.10;99.90;;;;;;5053496;28;20332;-79
2022/11/29 11:21:56;;;;;;;0.50;0.40;;;9.10;99.90;;;;;;5054384;28;20183;-76
2022/11/29 11:24:26;;;;;;;1.45;1.35;;;9.10;99.90;;;;;;5052987;28;20676;-79
2022/11/29 11:26:54;;;;;;;0.50;0.40;;;9.10;99.90;;;;;;5053850;28;20316;-78
2022/11/29 11:29:24;;;;;;;0.50;0.40;;;9.10;99.90;;;;;;5055360;28;20309;-79
2022/11/29 11:31:53;;;;;;;2.35;1.33;;;9.10;99.90;;;;;;5057702;28;20241;-79
2022/11/29 11:34:28;;;;;;;4.55;2.88;;;9.10;99.90;;;;;;5055817;28;20199;-79
2022/11/29 11:37:20;;;;;;;29.25;27.45;;;9.20;99.90;;;;;;5061270;28;20206;-81
2022/11/29 11:39:48;;;;;;;11.88;1.85;;;9.30;99.90;;;;;;5063820;28;20226;-79
2022/11/29 11:42:36;;;;;;;0.50;0.40;;;9.30;99.90;;;;;;5081554;28;20294;-81
2022/11/29 11:45:24;;;;;;;4.00;0.90;;;9.20;99.90;;;;;;5079438;28;20274;-80
2022/11/29 11:47:53;;;;;;;10.13;6.68;;;9.20;99.90;;;;;;5080471;28;20607;-79
2022/11/29 11:50:29;;;;;;;2.55;2.35;;;9.20;99.90;;;;;;5080422;28;20260;-78
2022/11/29 11:52:58;;;;;;;0.50;0.40;;;9.20;99.90;;;;;;5080638;28;20232;-76
2022/11/29 11:55:32;;;;;;;6.53;6.13;;;9.20;99.90;;;;;;5081262;28;20627;-78
2022/11/29 11:58:05;;;;;;;0.77;0.77;;;9.20;99.90;;;;;;5082755;28;20182;-79
2022/11/29 12:00:41;;;;;;;3.03;2.83;;;9.20;99.90;;;;;;5082060;28;20217;-79
2022/11/29 12:03:31;;;;;;;0.50;0.40;;;9.20;99.90;;;;;;5078856;28;20265;-79
2022/11/29 12:06:06;;;;;;;0.70;0.70;;;9.10;99.90;;;;;;5075745;28;20268;-79
2022/11/29 12:08:35;;;;;;;8.57;2.05;;;9.10;99.90;;;;;;5076846;28;20288;-79
2022/11/29 12:11:07;;;;;;;0.60;0.43;;;9.10;99.90;;;;;;5072487;28;20203;-79
2022/11/29 12:13:39;;;;;;;0.75;0.75;;;9.10;99.90;;;;;;5057107;28;20187;-80
2022/11/29 12:16:13;;;;;;;1.90;1.80;;;9.00;99.90;;;;;;5055909;28;20197;-80
2022/11/29 12:18:46;;;;;;;0.50;0.40;;;9.00;99.90;;;;;;5056830;28;20241;-79
2022/11/29 12:21:16;;;;;;;0.50;0.40;;;9.10;99.90;;;;;;5056899;28;20719;-79
2022/11/29 12:23:48;;;;;;;0.50;0.40;;;9.10;99.90;;;;;;5057052;28;20186;-79
2022/11/29 12:26:19;;;;;;;0.50;0.50;;;9.10;99.90;;;;;;5056372;28;20198;-79
2022/11/29 12:28:47;;;;;;;7.50;3.75;;;9.10;99.90;;;;;;5056514;28;20756;-78
2022/11/29 12:31:34;;;;;;;1.25;1.25;;;9.00;99.90;;;;;;5056173;28;20317;-79
2022/11/29 12:34:15;;;;;;;1.25;1.15;;;9.00;99.90;;;;;;5054334;28;20597;-78
2022/11/29 12:36:52;;;;;;;0.80;0.80;;;9.00;99.90;;;;;;5056244;28;20179;-78
2022/11/29 12:39:43;;;;;;;0.75;0.75;;;8.90;99.90;;;;;;5066090;28;20213;-78
2022/11/29 12:42:21;;;;;;;0.70;0.70;;;8.90;99.90;;;;;;5070162;28;20190;-79
2022/11/29 12:44:57;;;;;;;0.50;0.40;;;8.90;99.90;;;;;;5075172;28;20296;-79
2022/11/29 12:47:33;;;;;;;0.50;0.40;;;8.90;99.90;;;;;;5076273;28;20230;-79
2022/11/29 12:50:13;;;;;;;0.50;0.40;;;9.00;99.90;;;;;;5076241;28;20224;-79
2022/11/29 12:52:48;;;;;;;0.60;0.40;;;9.00;99.90;;;;;;5076677;28;20192;-80
2022/11/29 12:55:23;;;;;;;0.50;0.50;;;9.10;99.90;;;;;;5075190;28;20182;-79
2022/11/29 12:57:59;;;;;;;0.50;0.50;;;9.10;99.90;;;;;;5075663;28;20193;-78
2022/11/29 13:00:32;;;;;;;11.23;1.92;;;9.10;99.90;;;;;;5075112;28;20304;-78
2022/11/29 13:03:12;;;;;;;0.60;0.60;;;9.10;99.90;;;;;;5075625;28;20198;-79
2022/11/29 13:05:51;;;;;;;0.50;0.40;;;9.00;99.90;;;;;;5074656;28;20596;-78
2022/11/29 13:08:41;;;;;;;0.95;0.95;;;9.00;99.90;;;;;;5076176;28;20184;-79
2022/11/29 13:11:15;;;;;;;0.68;0.68;;;9.00;99.90;;;;;;5069262;28;20298;-77
2022/11/29 13:13:44;;;;;;;8.75;7.95;;;9.00;99.90;;;;;;5056811;28;20334;-78
2022/11/29 13:16:25;;;;;;;0.50;0.40;;;8.90;99.90;;;;;;5054988;28;20236;-80
2022/11/29 13:18:59;;;;;;;3.47;1.30;;;8.80;99.90;;;;;;5056732;28;20219;-81
2022/11/29 13:21:31;;;;;;;0.98;0.98;;;8.80;99.90;;;;;;5056708;28;20278;-81
2022/11/29 13:24:06;;;;;;;6.40;4.95;;;8.90;99.90;;;;;;5056185;28;20567;-76
2022/11/29 13:26:33;;;;;;;0.80;0.77;;;8.90;99.90;;;;;;5056501;28;20182;-80
2022/11/29 13:29:02;;;;;;;1.63;1.55;;;8.80;99.90;;;;;;5057170;28;20187;-80
2022/11/29 13:31:29;;;;;;;0.70;0.70;;;8.80;99.90;;;;;;5056957;28;20289;-79
2022/11/29 13:34:03;;;;;;;0.50;0.40;;;8.90;99.90;;;;;;5054807;28;20314;-78
2022/11/29 13:36:42;;;;;;;0.50;0.40;;;8.90;99.90;;;;;;5057380;28;20735;-80
2022/11/29 13:39:23;;;;;;;0.50;0.40;;;9.00;99.90;;;;;;5062455;28;20285;-79
2022/11/29 13:42:00;;;;;;;0.50;0.40;;;9.00;99.90;;;;;;5065242;28;20292;-80